createdAt,value
2023-04-07T00:00:34.770Z,100940.32
2023-04-07T00:03:02.394Z,100939.64
2023-04-07T00:05:29.276Z,100943.14
2023-04-07T00:07:57.371Z,100945.73
2023-04-07T00:10:25.322Z,100944.48
2023-04-07T00:12:52.296Z,100942.03
2023-04-07T00:15:18.886Z,100943.44
2023-04-07T00:17:45.661Z,100941.36
2023-04-07T00:20:12.518Z,100937.52
2023-04-07T00:22:39.806Z,100937.15
2023-04-07T00:25:07.210Z,100939.39
2023-04-07T00:27:33.799Z,100938.08
2023-04-07T00:30:00.293Z,100939.43
2023-04-07T00:32:26.993Z,100941.27
2023-04-07T00:34:53.497Z,100939.15
2023-04-07T00:37:20.052Z,100937.92
2023-04-07T00:39:46.880Z,100938.16
2023-04-07T00:42:13.545Z,100938.80
2023-04-07T00:44:40.479Z,100938.52
2023-04-07T00:47:07.180Z,100937.60
2023-04-07T00:49:34.343Z,100934.36
2023-04-07T00:52:01.525Z,100934.77
2023-04-07T00:54:30.263Z,100935.34
2023-04-07T00:56:57.493Z,100937.80
2023-04-07T00:59:25.214Z,100934.23
2023-04-07T01:02:39.099Z,100937.31
2023-04-07T01:05:26.014Z,100936.29
2023-04-07T01:08:06.502Z,100932.66
2023-04-07T01:11:13.522Z,100928.29
2023-04-07T01:13:48.391Z,100923.07
2023-04-07T01:16:23.939Z,100921.70
2023-04-07T01:18:54.838Z,100920.27
2023-04-07T01:21:25.339Z,100920.81
2023-04-07T01:24:12.483Z,100918.11
2023-04-07T01:26:39.800Z,100914.23
2023-04-07T01:29:41.584Z,100920.89
2023-04-07T01:32:11.928Z,100916.97
2023-04-07T01:34:39.033Z,100917.13
2023-04-07T01:37:07.679Z,100916.13
2023-04-07T01:39:36.127Z,100918.68
2023-04-07T01:42:05.434Z,100919.02
2023-04-07T01:44:33.624Z,100919.04
2023-04-07T01:47:01.579Z,100914.73
2023-04-07T01:49:30.132Z,100915.85
2023-04-07T01:51:58.289Z,100919.11
2023-04-07T01:54:26.160Z,100914.36
2023-04-07T01:56:52.955Z,100915.72
2023-04-07T01:59:19.625Z,100919.19
2023-04-07T02:01:46.449Z,100917.48
2023-04-07T02:04:38.880Z,100918.30
2023-04-07T02:07:15.288Z,100916.77
2023-04-07T02:09:43.488Z,100920.34
2023-04-07T02:12:13.248Z,100924.89
2023-04-07T02:14:40.390Z,100926.25
2023-04-07T02:17:07.130Z,100921.35
2023-04-07T02:19:35.922Z,100918.53
2023-04-07T02:22:06.913Z,100922.42
2023-04-07T02:24:33.574Z,100923.05
2023-04-07T02:27:02.163Z,100924.79
2023-04-07T02:29:28.810Z,100926.73
2023-04-07T02:31:56.426Z,100923.71
2023-04-07T02:34:23.149Z,100919.69
2023-04-07T02:36:49.676Z,100923.20
2023-04-07T02:39:16.356Z,100919.23
2023-04-07T02:41:42.963Z,100920.79
2023-04-07T02:44:10.111Z,100925.95
2023-04-07T02:46:36.866Z,100925.88
2023-04-07T02:49:03.604Z,100924.21
2023-04-07T02:51:30.140Z,100923.77
2023-04-07T02:53:56.762Z,100926.84
2023-04-07T02:56:23.762Z,100924.59
2023-04-07T02:58:50.306Z,100927.84
2023-04-07T03:01:16.997Z,100928.33
2023-04-07T03:03:45.033Z,100926.04
2023-04-07T03:06:11.907Z,100926.14
2023-04-07T03:08:38.669Z,100924.66
2023-04-07T03:11:05.588Z,100924.24
2023-04-07T03:13:32.428Z,100923.71
2023-04-07T03:15:59.089Z,100922.26
2023-04-07T03:18:25.663Z,100928.04
2023-04-07T03:20:53.234Z,100928.94
2023-04-07T03:23:19.890Z,100927.88
2023-04-07T03:25:47.568Z,100927.91
2023-04-07T03:28:15.619Z,100928.89
2023-04-07T03:30:42.468Z,100933.77
2023-04-07T03:33:09.424Z,100926.64
2023-04-07T03:35:36.049Z,100926.73
2023-04-07T03:38:02.726Z,100925.08
2023-04-07T03:40:29.367Z,100920.67
2023-04-07T03:42:56.087Z,100925.22
2023-04-07T03:45:22.854Z,100927.38
2023-04-07T03:47:49.549Z,100929.41
2023-04-07T03:50:16.708Z,100929.91
2023-04-07T03:52:43.309Z,100931.45
2023-04-07T03:55:10.158Z,100933.14
2023-04-07T03:57:36.795Z,100932.33
2023-04-07T04:00:05.580Z,100934.21
2023-04-07T04:02:32.290Z,100936.09
2023-04-07T04:04:59.242Z,100936.25
2023-04-07T04:07:26.360Z,100940.50
2023-04-07T04:09:53.168Z,100940.28
2023-04-07T04:12:19.672Z,100944.15
2023-04-07T04:14:46.423Z,100946.04
2023-04-07T04:17:13.168Z,100947.38
2023-04-07T04:19:39.885Z,100948.91
2023-04-07T04:22:06.803Z,100944.05
2023-04-07T04:24:33.548Z,100943.75
2023-04-07T04:27:01.825Z,100940.98
2023-04-07T04:29:28.265Z,100940.75
2023-04-07T04:31:54.854Z,100941.75
2023-04-07T04:34:21.583Z,100946.64
2023-04-07T04:36:49.295Z,100947.96
2023-04-07T04:39:15.952Z,100945.36
2023-04-07T04:41:42.806Z,100949.95
2023-04-07T04:44:09.712Z,100952.15
2023-04-07T04:46:36.979Z,100958.45
2023-04-07T04:49:03.846Z,100957.20
2023-04-07T04:51:30.918Z,100962.65
2023-04-07T04:53:57.553Z,100966.69
2023-04-07T04:56:24.233Z,100966.50
2023-04-07T04:58:50.950Z,100974.30
2023-04-07T05:01:17.500Z,100969.85
2023-04-07T05:03:44.124Z,100970.50
2023-04-07T05:06:11.147Z,100966.77
2023-04-07T05:08:37.611Z,100963.17
2023-04-07T05:11:04.367Z,100968.34
2023-04-07T05:13:31.246Z,100975.45
2023-04-07T05:15:57.860Z,100977.64
2023-04-07T05:18:24.491Z,100976.00
2023-04-07T05:20:51.098Z,100971.09
2023-04-07T05:23:17.699Z,100973.59
2023-04-07T05:25:44.283Z,100976.42
2023-04-07T05:28:10.847Z,100977.88
2023-04-07T05:30:37.438Z,100974.98
2023-04-07T05:33:04.047Z,100972.59
2023-04-07T05:35:31.460Z,100977.47
2023-04-07T05:37:57.977Z,100977.08
2023-04-07T05:40:24.668Z,100977.56
2023-04-07T05:42:51.548Z,100980.09
2023-04-07T05:45:18.387Z,100978.61
2023-04-07T05:47:47.232Z,100978.19
2023-04-07T05:50:14.530Z,100983.52
2023-04-07T05:52:41.196Z,100985.43
2023-04-07T05:55:08.426Z,100982.43
2023-04-07T05:57:35.781Z,100985.80
2023-04-07T06:00:02.475Z,100988.17
2023-04-07T06:02:29.136Z,100984.96
2023-04-07T06:04:56.253Z,100990.90
2023-04-07T06:07:22.782Z,100994.59
2023-04-07T06:09:49.469Z,100998.63
2023-04-07T06:12:17.042Z,100996.57
2023-04-07T06:14:43.645Z,100998.17
2023-04-07T06:17:10.364Z,101001.68
2023-04-07T06:19:36.884Z,101007.55
2023-04-07T06:22:03.435Z,101003.87
2023-04-07T06:24:29.892Z,101005.77
2023-04-07T06:26:57.038Z,101009.77
2023-04-07T06:29:23.717Z,101010.95
2023-04-07T06:31:50.490Z,101013.79
2023-04-07T06:34:17.432Z,101015.30
2023-04-07T06:36:43.992Z,101015.41
2023-04-07T06:39:10.671Z,101015.44
2023-04-07T06:41:38.831Z,101014.24
2023-04-07T06:46:32.518Z,101023.45
2023-04-07T06:48:59.133Z,101019.63
2023-04-07T06:51:26.402Z,101020.10
2023-04-07T06:53:53.035Z,101019.65
2023-04-07T06:56:21.151Z,101022.79
2023-04-07T06:58:47.686Z,101021.70
2023-04-07T07:01:14.364Z,101025.43
2023-04-07T07:03:41.331Z,101033.80
2023-04-07T07:06:08.031Z,101033.14
2023-04-07T07:08:34.603Z,101029.45
2023-04-07T07:11:01.143Z,101033.09
2023-04-07T07:13:28.621Z,101035.92
2023-04-07T07:15:55.778Z,101038.96
2023-04-07T07:18:22.313Z,101037.90
2023-04-07T07:20:48.812Z,101039.30
2023-04-07T07:23:15.640Z,101043.14
2023-04-07T07:25:42.105Z,101043.77
2023-04-07T07:28:09.704Z,101045.05
2023-04-07T07:30:36.400Z,101045.48
2023-04-07T07:33:03.072Z,101047.09
2023-04-07T07:35:29.685Z,101052.70
2023-04-07T07:37:56.304Z,101054.21
2023-04-07T07:40:22.853Z,101058.66
2023-04-07T07:42:49.424Z,101058.76
2023-04-07T07:45:17.671Z,101056.98
2023-04-07T07:47:44.131Z,101052.45
2023-04-07T07:50:11.218Z,101059.40
2023-04-07T07:52:37.716Z,101059.73
2023-04-07T07:55:04.553Z,101060.59
2023-04-07T07:57:31.932Z,101060.57
2023-04-07T07:59:58.530Z,101063.16
2023-04-07T08:02:30.754Z,101063.91
2023-04-07T08:04:58.352Z,101070.52
2023-04-07T08:07:25.490Z,101071.96
2023-04-07T08:09:52.207Z,101073.68
2023-04-07T08:12:19.111Z,101076.91
2023-04-07T08:14:46.269Z,101074.03
2023-04-07T08:17:13.181Z,101072.36
2023-04-07T08:19:39.904Z,101074.61
2023-04-07T08:22:06.385Z,101076.52
2023-04-07T08:24:32.883Z,101075.67
2023-04-07T08:26:59.403Z,101079.92
2023-04-07T08:29:26.250Z,101076.80
2023-04-07T08:31:52.827Z,101078.48
2023-04-07T08:34:21.188Z,101077.23
2023-04-07T08:36:48.214Z,101076.48
2023-04-07T08:39:14.724Z,101076.75
2023-04-07T08:41:42.526Z,101078.03
2023-04-07T08:44:10.478Z,101081.17
2023-04-07T08:46:41.151Z,101081.16
2023-04-07T08:49:11.297Z,101085.78
2023-04-07T08:51:38.824Z,101078.12
2023-04-07T08:54:12.698Z,101076.63
2023-04-07T08:56:41.276Z,101081.75
2023-04-07T08:59:09.967Z,101081.07
2023-04-07T09:01:37.583Z,101085.27
2023-04-07T09:04:05.762Z,101083.02
2023-04-07T09:06:32.468Z,101082.17
2023-04-07T09:09:00.398Z,101084.02
2023-04-07T09:11:27.971Z,101083.98
2023-04-07T09:13:55.609Z,101085.20
2023-04-07T09:16:24.009Z,101082.45
2023-04-07T09:18:50.718Z,101087.10
2023-04-07T09:21:17.254Z,101085.14
2023-04-07T09:23:44.039Z,101089.61
2023-04-07T09:26:27.481Z,101085.36
2023-04-07T09:29:03.158Z,101085.75
2023-04-07T09:31:50.717Z,101081.50
2023-04-07T09:34:28.049Z,101085.77
2023-04-07T09:36:55.190Z,101085.59
2023-04-07T09:39:21.700Z,101089.20
2023-04-07T09:41:48.562Z,101087.44
2023-04-07T09:44:16.302Z,101084.20
2023-04-07T09:46:54.385Z,101083.19
2023-04-07T09:49:21.435Z,101087.21
2023-04-07T09:52:07.634Z,101083.14
2023-04-07T09:54:38.942Z,101085.04
2023-04-07T09:57:10.090Z,101087.55
2023-04-07T09:59:45.783Z,101081.23
2023-04-07T10:02:12.627Z,101081.34
2023-04-07T10:04:40.914Z,101080.31
2023-04-07T10:07:07.549Z,101090.13
2023-04-07T10:09:34.099Z,101086.32
2023-04-07T10:12:00.819Z,101086.95
2023-04-07T10:14:32.184Z,101085.98
2023-04-07T10:17:00.348Z,101080.67
2023-04-07T10:19:32.121Z,101082.16
2023-04-07T10:22:01.136Z,101088.48
2023-04-07T10:24:33.706Z,101093.66
2023-04-07T10:27:04.973Z,101091.14
2023-04-07T10:29:42.456Z,101088.00
2023-04-07T10:32:09.599Z,101091.18
2023-04-07T10:34:58.395Z,101090.35
2023-04-07T10:37:26.337Z,101092.61
2023-04-07T10:40:18.492Z,101092.98
2023-04-07T10:42:47.449Z,101089.63
2023-04-07T10:45:14.262Z,101087.95
2023-04-07T10:47:59.821Z,101094.27
2023-04-07T10:50:26.558Z,101097.00
2023-04-07T10:53:13.864Z,101096.62
2023-04-07T10:55:41.028Z,101094.05
2023-04-07T10:58:21.279Z,101094.94
2023-04-07T11:01:00.408Z,101093.91
2023-04-07T11:03:29.292Z,101093.52
2023-04-07T11:06:06.083Z,101098.09
2023-04-07T11:08:39.020Z,101097.00
2023-04-07T11:11:09.778Z,101095.13
2023-04-07T11:13:51.083Z,101093.36
2023-04-07T11:16:20.124Z,101090.11
2023-04-07T11:18:47.934Z,101090.33
2023-04-07T11:21:18.926Z,101088.54
2023-04-07T11:23:47.138Z,101092.59
2023-04-07T11:26:16.519Z,101094.91
2023-04-07T11:28:54.006Z,101089.67
2023-04-07T11:31:29.238Z,101086.95
2023-04-07T11:33:58.907Z,101089.69
2023-04-07T11:36:35.390Z,101084.05
2023-04-07T11:39:03.048Z,101083.09
2023-04-07T11:41:33.025Z,101086.88
2023-04-07T11:44:11.429Z,101092.39
2023-04-07T11:46:56.471Z,101090.37
2023-04-07T11:49:24.472Z,101087.14
2023-04-07T11:51:59.141Z,101084.27
2023-04-07T11:54:26.037Z,101088.40
2023-04-07T11:56:55.459Z,101082.77
2023-04-07T11:59:26.053Z,101085.79
2023-04-07T12:01:56.078Z,101085.45
2023-04-07T12:04:24.639Z,101089.73
2023-04-07T12:06:51.434Z,101089.45
2023-04-07T12:09:30.461Z,101090.11
2023-04-07T12:11:57.976Z,101092.42
2023-04-07T12:14:26.241Z,101085.61
2023-04-07T12:16:53.369Z,101086.26
2023-04-07T12:19:20.077Z,101091.61
2023-04-07T12:21:46.887Z,101094.85
2023-04-07T12:24:13.488Z,101092.64
2023-04-07T12:26:40.169Z,101091.28
2023-04-07T12:29:07.139Z,101087.73
2023-04-07T12:31:34.803Z,101089.08
2023-04-07T12:34:03.283Z,101086.57
2023-04-07T12:36:29.764Z,101086.64
2023-04-07T12:38:57.281Z,101084.40
2023-04-07T12:41:25.268Z,101083.66
2023-04-07T12:43:52.634Z,101081.89
2023-04-07T12:46:21.379Z,101081.94
2023-04-07T12:48:48.143Z,101083.90
2023-04-07T12:51:15.075Z,101083.86
2023-04-07T12:53:41.778Z,101081.45
2023-04-07T12:56:08.538Z,101085.04
2023-04-07T12:58:35.140Z,101082.53
2023-04-07T13:01:01.801Z,101083.83
2023-04-07T13:03:28.830Z,101080.99
2023-04-07T13:05:55.879Z,101079.13
2023-04-07T13:08:22.519Z,101074.21
2023-04-07T13:10:49.304Z,101078.85
2023-04-07T13:13:15.943Z,101079.45
2023-04-07T13:15:42.396Z,101081.28
2023-04-07T13:18:09.202Z,101076.42
2023-04-07T13:20:35.918Z,101077.16
2023-04-07T13:23:08.372Z,101081.88
2023-04-07T13:25:37.443Z,101075.12
2023-04-07T13:28:04.138Z,101080.37
2023-04-07T13:30:31.217Z,101079.52
2023-04-07T13:32:58.016Z,101083.40
2023-04-07T13:35:24.765Z,101079.80
2023-04-07T13:37:51.197Z,101083.38
2023-04-07T13:40:18.005Z,101080.89
2023-04-07T13:42:44.685Z,101078.01
2023-04-07T13:45:11.382Z,101078.86
2023-04-07T13:47:37.869Z,101080.67
2023-04-07T13:50:06.398Z,101081.34
2023-04-07T13:52:35.126Z,101079.59
2023-04-07T13:55:03.979Z,101077.23
2023-04-07T13:57:30.475Z,101078.46
2023-04-07T13:59:57.322Z,101081.21
2023-04-07T14:02:24.969Z,101082.60
2023-04-07T14:04:51.765Z,101082.39
2023-04-07T14:07:18.453Z,101077.98
2023-04-07T14:09:46.291Z,101075.40
2023-04-07T14:12:12.990Z,101073.06
2023-04-07T14:14:39.694Z,101080.46
2023-04-07T14:17:06.599Z,101074.36
2023-04-07T14:19:36.168Z,101075.06
2023-04-07T14:22:02.805Z,101074.35
2023-04-07T14:24:29.804Z,101074.06
2023-04-07T14:26:56.333Z,101075.08
2023-04-07T14:29:23.650Z,101071.89
2023-04-07T14:31:51.385Z,101070.19
2023-04-07T14:34:18.150Z,101068.48
2023-04-07T14:36:53.721Z,101071.64
2023-04-07T14:39:21.049Z,101068.63
2023-04-07T14:41:47.992Z,101075.00
2023-04-07T14:44:14.550Z,101070.79
2023-04-07T14:46:42.581Z,101074.06
2023-04-07T14:49:09.795Z,101069.95
2023-04-07T14:51:36.584Z,101069.46
2023-04-07T14:54:03.713Z,101070.70
2023-04-07T14:56:30.472Z,101074.70
2023-04-07T14:58:56.952Z,101072.71
2023-04-07T15:01:23.753Z,101079.55
2023-04-07T15:04:01.014Z,101081.98
2023-04-07T15:06:28.034Z,101084.11
2023-04-07T15:08:54.735Z,101081.60
2023-04-07T15:11:21.799Z,101083.66
2023-04-07T15:13:48.747Z,101087.96
2023-04-07T15:16:16.309Z,101083.88
2023-04-07T15:18:44.824Z,101086.44
2023-04-07T15:21:12.465Z,101088.57
2023-04-07T15:23:40.326Z,101085.48
2023-04-07T15:26:07.544Z,101089.34
2023-04-07T15:28:34.226Z,101085.21
2023-04-07T15:31:01.430Z,101084.50
2023-04-07T15:33:28.039Z,101088.63
2023-04-07T15:35:54.982Z,101090.13
2023-04-07T15:38:21.567Z,101089.38
2023-04-07T15:40:48.280Z,101093.95
2023-04-07T15:43:14.864Z,101093.36
2023-04-07T15:45:42.927Z,101096.47
2023-04-07T15:48:10.666Z,101097.98
2023-04-07T15:50:37.574Z,101097.62
2023-04-07T15:53:04.805Z,101095.23
2023-04-07T15:55:33.235Z,101099.13
2023-04-07T15:58:00.314Z,101100.83
2023-04-07T16:00:28.238Z,101100.91
2023-04-07T16:02:55.593Z,101104.57
2023-04-07T16:05:22.235Z,101108.51
2023-04-07T16:07:48.932Z,101105.32
2023-04-07T16:10:19.520Z,101107.80
2023-04-07T16:12:46.851Z,101110.58
2023-04-07T16:15:15.558Z,101112.56
2023-04-07T16:17:48.955Z,101112.79
2023-04-07T16:20:16.390Z,101119.57
2023-04-07T16:22:45.676Z,101118.70
2023-04-07T16:25:12.971Z,101118.95
2023-04-07T16:27:39.574Z,101120.98
2023-04-07T16:30:06.992Z,101122.95
2023-04-07T16:32:34.974Z,101128.10
2023-04-07T16:35:01.835Z,101127.13
2023-04-07T16:37:28.460Z,101130.70
2023-04-07T16:39:56.462Z,101135.73
2023-04-07T16:42:28.563Z,101140.79
2023-04-07T16:44:57.658Z,101139.65
2023-04-07T16:47:26.266Z,101143.11
2023-04-07T16:49:53.972Z,101144.59
2023-04-07T16:52:20.837Z,101148.92
2023-04-07T16:54:47.599Z,101142.77
2023-04-07T16:57:14.515Z,101149.09
2023-04-07T16:59:41.488Z,101150.19
2023-04-07T17:02:13.929Z,101157.40
2023-04-07T17:04:41.195Z,101159.46
2023-04-07T17:07:08.349Z,101167.54
2023-04-07T17:09:35.377Z,101169.36
2023-04-07T17:12:03.183Z,101178.23
2023-04-07T17:14:30.420Z,101179.92
2023-04-07T17:16:57.346Z,101194.79
2023-04-07T17:19:23.886Z,101192.33
2023-04-07T17:21:50.691Z,101197.08
2023-04-07T17:24:17.353Z,101199.76
2023-04-07T17:26:46.612Z,101206.69
2023-04-07T17:29:14.096Z,101210.41
2023-04-07T17:31:41.028Z,101216.30
2023-04-07T17:34:07.952Z,101219.95
2023-04-07T17:36:35.640Z,101225.35
2023-04-07T17:39:03.251Z,101229.77
2023-04-07T17:41:31.238Z,101236.00
2023-04-07T17:43:57.736Z,101240.06
2023-04-07T17:46:24.455Z,101240.81
2023-04-07T17:48:51.734Z,101247.50
2023-04-07T17:51:18.359Z,101250.27
2023-04-07T17:53:44.904Z,101258.80
2023-04-07T17:56:12.640Z,101261.80
2023-04-07T17:58:40.044Z,101265.25
2023-04-07T18:01:09.337Z,101268.46
2023-04-07T18:03:36.904Z,101273.13
2023-04-07T18:06:04.496Z,101275.17
2023-04-07T18:08:31.709Z,101277.15
2023-04-07T18:10:58.400Z,101283.60
2023-04-07T18:13:24.943Z,101286.15
2023-04-07T18:15:52.110Z,101286.41
2023-04-07T18:18:20.288Z,101291.95
2023-04-07T18:20:46.761Z,101291.77
2023-04-07T18:23:13.693Z,101292.47
2023-04-07T18:25:40.473Z,101293.20
2023-04-07T18:28:07.078Z,101295.97
2023-04-07T18:30:33.657Z,101300.45
2023-04-07T18:33:00.346Z,101306.75
2023-04-07T18:35:27.154Z,101311.56
2023-04-07T18:37:53.929Z,101313.54
2023-04-07T18:40:20.490Z,101316.77
2023-04-07T18:42:47.079Z,101314.86
2023-04-07T18:45:13.759Z,101319.20
2023-04-07T18:47:40.275Z,101324.99
2023-04-07T18:50:07.671Z,101324.48
2023-04-07T18:52:34.124Z,101328.60
2023-04-07T18:55:00.552Z,101334.82
2023-04-07T18:57:27.186Z,101342.77
2023-04-07T18:59:53.980Z,101346.48
2023-04-07T19:02:20.706Z,101348.91
2023-04-07T19:04:47.313Z,101353.40
2023-04-07T19:07:13.848Z,101358.32
2023-04-07T19:09:40.261Z,101361.22
2023-04-07T19:12:06.816Z,101362.80
2023-04-07T19:14:33.250Z,101364.94
2023-04-07T19:16:59.998Z,101369.63
2023-04-07T19:19:27.821Z,101369.96
2023-04-07T19:21:54.483Z,101369.34
2023-04-07T19:24:20.993Z,101369.75
2023-04-07T19:26:47.464Z,101377.07
2023-04-07T19:29:14.047Z,101379.77
2023-04-07T19:31:40.656Z,101382.06
2023-04-07T19:34:07.180Z,101383.33
2023-04-07T19:36:33.730Z,101384.19
2023-04-07T19:39:00.237Z,101388.29
2023-04-07T19:41:26.806Z,101389.65
2023-04-07T19:43:53.409Z,101393.69
2023-04-07T19:46:19.950Z,101394.48
2023-04-07T19:48:46.887Z,101397.21
2023-04-07T19:51:13.457Z,101401.08
2023-04-07T19:53:40.047Z,101399.38
2023-04-07T19:56:06.532Z,101402.38
2023-04-07T19:58:34.456Z,101402.95
2023-04-07T20:01:01.052Z,101408.77
2023-04-07T20:03:28.003Z,101412.92
2023-04-07T20:05:55.425Z,101414.42
2023-04-07T20:08:22.014Z,101417.64
2023-04-07T20:10:51.575Z,101419.02
2023-04-07T20:13:18.250Z,101419.70
2023-04-07T20:15:44.949Z,101421.91
2023-04-07T20:18:12.408Z,101422.20
2023-04-07T20:20:38.954Z,101421.77
2023-04-07T20:23:05.466Z,101422.84
2023-04-07T20:25:31.961Z,101423.58
2023-04-07T20:27:58.670Z,101424.67
2023-04-07T20:30:25.428Z,101421.73
2023-04-07T20:32:51.923Z,101424.98
2023-04-07T20:35:18.791Z,101426.60
2023-04-07T20:37:45.645Z,101426.04
2023-04-07T20:40:12.646Z,101434.45
2023-04-07T20:42:39.181Z,101436.34
2023-04-07T20:45:06.582Z,101439.42
2023-04-07T20:47:36.080Z,101440.19
2023-04-07T20:50:03.046Z,101446.55
2023-04-07T20:52:29.613Z,101446.33
2023-04-07T20:54:56.543Z,101447.98
2023-04-07T20:57:23.138Z,101450.80
2023-04-07T20:59:49.681Z,101448.23
2023-04-07T21:02:16.415Z,101451.88
2023-04-07T21:04:43.155Z,101451.03
2023-04-07T21:07:10.619Z,101455.55
2023-04-07T21:09:37.244Z,101456.85
2023-04-07T21:12:04.494Z,101462.33
2023-04-07T21:14:32.026Z,101459.48
2023-04-07T21:16:59.483Z,101460.21
2023-04-07T21:19:26.105Z,101458.83
2023-04-07T21:21:52.686Z,101464.32
2023-04-07T21:24:20.361Z,101461.70
2023-04-07T21:26:46.877Z,101466.06
2023-04-07T21:29:13.276Z,101464.34
2023-04-07T21:31:40.313Z,101464.08
2023-04-07T21:34:06.769Z,101462.41
2023-04-07T21:36:33.877Z,101465.66
2023-04-07T21:39:00.703Z,101465.27
2023-04-07T21:41:27.211Z,101465.45
2023-04-07T21:43:53.641Z,101470.70
2023-04-07T21:46:20.203Z,101467.83
2023-04-07T21:48:48.350Z,101471.86
2023-04-07T21:51:15.486Z,101469.84
2023-04-07T21:53:42.349Z,101469.80
2023-04-07T21:56:09.426Z,101467.80
2023-04-07T21:58:37.390Z,101469.42
2023-04-07T22:01:03.947Z,101467.95
2023-04-07T22:03:30.707Z,101467.96
2023-04-07T22:06:01.090Z,101466.77
2023-04-07T22:08:27.793Z,101471.52
2023-04-07T22:10:54.679Z,101469.08
2023-04-07T22:13:21.147Z,101474.85
2023-04-07T22:15:47.733Z,101475.69
2023-04-07T22:18:14.321Z,101477.60
2023-04-07T22:20:41.332Z,101479.92
2023-04-07T22:23:07.922Z,101484.36
2023-04-07T22:25:34.466Z,101486.96
2023-04-07T22:28:01.126Z,101492.59
2023-04-07T22:30:27.547Z,101490.64
2023-04-07T22:32:53.997Z,101491.30
2023-04-07T22:35:20.784Z,101489.82
2023-04-07T22:37:47.401Z,101492.36
2023-04-07T22:40:13.981Z,101494.95
2023-04-07T22:42:40.700Z,101494.39
2023-04-07T22:45:07.795Z,101495.98
2023-04-07T22:47:34.462Z,101498.40
2023-04-07T22:50:01.237Z,101491.74
2023-04-07T22:52:28.129Z,101496.61
2023-04-07T22:54:54.846Z,101497.77
2023-04-07T22:57:21.581Z,101497.64
2023-04-07T22:59:48.032Z,101496.81
2023-04-07T23:02:14.727Z,101499.61
2023-04-07T23:04:41.882Z,101498.64
2023-04-07T23:07:08.509Z,101500.81
2023-04-07T23:09:35.421Z,101499.00
2023-04-07T23:12:01.846Z,101499.06
2023-04-07T23:14:28.457Z,101504.02
2023-04-07T23:16:56.085Z,101505.66
2023-04-07T23:19:22.806Z,101507.77
2023-04-07T23:21:49.393Z,101500.06
2023-04-07T23:24:16.130Z,101502.77
2023-04-07T23:26:42.714Z,101504.34
2023-04-07T23:29:09.182Z,101504.48
2023-04-07T23:31:36.064Z,101509.23
2023-04-07T23:34:04.164Z,101507.77
2023-04-07T23:36:31.467Z,101506.37
2023-04-07T23:38:57.987Z,101507.17
2023-04-07T23:41:24.495Z,101507.88
2023-04-07T23:43:51.073Z,101507.18
2023-04-07T23:46:17.729Z,101505.70
2023-04-07T23:48:44.354Z,101505.29
2023-04-07T23:51:10.833Z,101504.16
2023-04-07T23:53:37.489Z,101504.86
2023-04-07T23:56:03.990Z,101501.63
2023-04-07T23:58:30.578Z,101504.50
